Imperatriz, Brazil
Current Conditions -  °F | °C
As of 7:00 PM on Friday 31 Oct 2014 (Local Time) from SBTT Reporting Station
Clear Clear  
Wind Chill: 79°   Ceiling: Unl
Heat Index: 82°   Visibility: 5mi
Dew Point: 73°   Wind: 2mph
Humidity: 83%   Direction: 310°NW
Pressure: 29.71"   Gusts: NA
Location:  5.3°S, 67.18°W
Report Text: SBTT 312300Z 31002KT 8000 NSC 26/23 Q1006
Loading
Personal Weather Stations






























Interactive Weather Map
Tropical Storm Tracking
New forecast layout! Learn more

10-Day Weather Forecast

Advertisements
Track Severe Weather on mobile